Decoded Metar for MMTG (TUXTLA GUTIERREZ in MEXICO) (IATA:TGZ) | Meteo·Mobile Aviation Weather
aviador You're here:

MMTG Decoded Metar

TUXTLA GUTIERREZ in MEXICO
Report Time2019-02-23 00:40:00
UTC Time2019-02-23 01:02:41
Flight Rules vfr VFR
Wind340° at 10 kt
W.Decomp.*RWY 32: 9.6 kt HW 2.9 kt RCW
W.Rank340° ranks 8
Current wind is above 340° avg. (6.6)
Visibility9999 m
Phenomena:N/A
Clouds:Few TCU 038 Hf
Few 070 Hf
Expected CloudBase > 6,400 ft AGL from Temp-Dew spread
CeilingNone
Temp31°C (ISA +19)
Dew Point15°C (38% RH)
Heat Index30.6°C
AAT29.0°C
QNH1012 hPa
Density Alt4,213 ft
Elevation1,732 ft
Report Wrong Elevation
Raw Report
METAR MMTG 230040Z 34010KT 7SM FEW038TCU FEW070 31/15 A2987 RMK 8/230
HZY=

Extra information for MMTG:More info

Metar Taf Metar & Taf Last 4 Metars F.Rules Stats Wind Profile Meteogram Temp Stats Airport Information Weather charts Add Link Nearby VenuesMetar ALERT Operation Metar Decoded Social comments